sensor_id;sensor_type;location;lat;lon;timestamp;pressure;altitude;pressure_sealevel;temperature;humidity
12666;BME280;58531;59.050;17.416;2023-01-30T00:01:22;97877.78;;;4.65;100.00
12666;BME280;58531;59.050;17.416;2023-01-30T00:03:51;97876.81;;;4.63;100.00
12666;BME280;58531;59.050;17.416;2023-01-30T00:06:18;97867.97;;;4.65;100.00
12666;BME280;58531;59.050;17.416;2023-01-30T00:08:45;97866.78;;;4.66;100.00
12666;BME280;58531;59.050;17.416;2023-01-30T00:11:13;97870.13;;;4.67;100.00
12666;BME280;58531;59.050;17.416;2023-01-30T00:13:41;97849.72;;;4.67;100.00
12666;BME280;58531;59.050;17.416;2023-01-30T00:16:08;97848.28;;;4.66;100.00
12666;BME280;58531;59.050;17.416;2023-01-30T00:18:35;97843.91;;;4.63;100.00
12666;BME280;58531;59.050;17.416;2023-01-30T00:21:06;97835.72;;;4.62;100.00
12666;BME280;58531;59.050;17.416;2023-01-30T00:23:34;97817.47;;;4.63;100.00
12666;BME280;58531;59.050;17.416;2023-01-30T00:26:02;97817.47;;;4.63;100.00
12666;BME280;58531;59.050;17.416;2023-01-30T00:28:29;97798.31;;;4.68;100.00
12666;BME280;58531;59.050;17.416;2023-01-30T00:30:56;97806.91;;;4.63;100.00
12666;BME280;58531;59.050;17.416;2023-01-30T00:33:24;97807.09;;;4.60;100.00
12666;BME280;58531;59.050;17.416;2023-01-30T00:35:53;97819.38;;;4.63;100.00
12666;BME280;58531;59.050;17.416;2023-01-30T00:38:22;97805.19;;;4.61;100.00
12666;BME280;58531;59.050;17.416;2023-01-30T00:40:49;97791.66;;;4.53;100.00
12666;BME280;58531;59.050;17.416;2023-01-30T00:43:18;97786.81;;;4.52;100.00
12666;BME280;58531;59.050;17.416;2023-01-30T00:46:07;97779.81;;;4.49;100.00
12666;BME280;58531;59.050;17.416;2023-01-30T00:48:53;97782.66;;;4.45;100.00
12666;BME280;58531;59.050;17.416;2023-01-30T00:51:20;97771.81;;;4.43;100.00
12666;BME280;58531;59.050;17.416;2023-01-30T00:53:48;97757.59;;;4.41;100.00
12666;BME280;58531;59.050;17.416;2023-01-30T00:56:15;97750.31;;;4.36;100.00
12666;BME280;58531;59.050;17.416;2023-01-30T00:58:42;97735.88;;;4.31;100.00
12666;BME280;58531;59.050;17.416;2023-01-30T01:01:08;97723.31;;;4.26;100.00
12666;BME280;58531;59.050;17.416;2023-01-30T01:03:35;97705.75;;;4.23;100.00
12666;BME280;58531;59.050;17.416;2023-01-30T01:06:02;97677.19;;;4.22;100.00
12666;BME280;58531;59.050;17.416;2023-01-30T01:08:29;97681.94;;;4.18;100.00
12666;BME280;58531;59.050;17.416;2023-01-30T01:10:57;97690.50;;;4.13;100.00
12666;BME280;58531;59.050;17.416;2023-01-30T01:13:24;97683.78;;;4.12;100.00
12666;BME280;58531;59.050;17.416;2023-01-30T01:15:51;97674.66;;;4.13;100.00
12666;BME280;58531;59.050;17.416;2023-01-30T01:18:18;97670.56;;;4.12;100.00
12666;BME280;58531;59.050;17.416;2023-01-30T01:20:45;97668.13;;;4.08;100.00
12666;BME280;58531;59.050;17.416;2023-01-30T01:23:12;97661.59;;;4.04;100.00
12666;BME280;58531;59.050;17.416;2023-01-30T01:25:39;97657.97;;;4.01;100.00
12666;BME280;58531;59.050;17.416;2023-01-30T01:28:07;97663.78;;;4.05;100.00
12666;BME280;58531;59.050;17.416;2023-01-30T01:30:34;97654.69;;;4.06;100.00
12666;BME280;58531;59.050;17.416;2023-01-30T01:33:01;97641.91;;;4.05;100.00
12666;BME280;58531;59.050;17.416;2023-01-30T01:35:28;97641.00;;;4.08;100.00
12666;BME280;58531;59.050;17.416;2023-01-30T01:37:55;97632.81;;;4.06;100.00
12666;BME280;58531;59.050;17.416;2023-01-30T01:40:22;97633.06;;;4.08;100.00
12666;BME280;58531;59.050;17.416;2023-01-30T01:43:18;97626.06;;;4.05;100.00
12666;BME280;58531;59.050;17.416;2023-01-30T01:45:48;97622.72;;;4.04;100.00
12666;BME280;58531;59.050;17.416;2023-01-30T01:48:19;97619.34;;;4.04;100.00
12666;BME280;58531;59.050;17.416;2023-01-30T01:50:51;97603.25;;;4.02;100.00
12666;BME280;58531;59.050;17.416;2023-01-30T01:53:21;97602.91;;;3.94;100.00
12666;BME280;58531;59.050;17.416;2023-01-30T01:55:53;97590.16;;;3.93;100.00
12666;BME280;58531;59.050;17.416;2023-01-30T01:58:26;97587.91;;;3.86;100.00
12666;BME280;58531;59.050;17.416;2023-01-30T02:00:56;97587.16;;;3.80;100.00
12666;BME280;58531;59.050;17.416;2023-01-30T02:03:25;97597.72;;;3.80;100.00
12666;BME280;58531;59.050;17.416;2023-01-30T02:05:56;97584.78;;;3.82;100.00
12666;BME280;58531;59.050;17.416;2023-01-30T02:08:26;97585.97;;;3.81;100.00
12666;BME280;58531;59.050;17.416;2023-01-30T02:10:58;97583.06;;;3.79;100.00
12666;BME280;58531;59.050;17.416;2023-01-30T02:13:27;97573.97;;;3.80;100.00
12666;BME280;58531;59.050;17.416;2023-01-30T02:15:56;97559.31;;;3.79;100.00
12666;BME280;58531;59.050;17.416;2023-01-30T02:18:24;97545.59;;;3.75;100.00
12666;BME280;58531;59.050;17.416;2023-01-30T02:32:55;97517.00;;;3.93;100.00
12666;BME280;58531;59.050;17.416;2023-01-30T02:35:34;97504.09;;;4.01;100.00
12666;BME280;58531;59.050;17.416;2023-01-30T02:38:15;97502.13;;;3.96;100.00
12666;BME280;58531;59.050;17.416;2023-01-30T02:40:51;97496.06;;;3.90;100.00
12666;BME280;58531;59.050;17.416;2023-01-30T02:43:27;97500.16;;;3.91;100.00
12666;BME280;58531;59.050;17.416;2023-01-30T02:46:01;97492.44;;;3.87;100.00
12666;BME280;58531;59.050;17.416;2023-01-30T02:48:36;97484.00;;;3.83;100.00
12666;BME280;58531;59.050;17.416;2023-01-30T02:51:09;97493.44;;;3.90;100.00
12666;BME280;58531;59.050;17.416;2023-01-30T02:53:38;97492.31;;;3.96;100.00
12666;BME280;58531;59.050;17.416;2023-01-30T02:56:05;97500.22;;;3.96;100.00
12666;BME280;58531;59.050;17.416;2023-01-30T02:58:36;97499.34;;;4.05;100.00
12666;BME280;58531;59.050;17.416;2023-01-30T03:01:28;97509.06;;;3.93;100.00
12666;BME280;58531;59.050;17.416;2023-01-30T03:04:11;97514.94;;;3.83;100.00
12666;BME280;58531;59.050;17.416;2023-01-30T03:07:04;97514.63;;;3.75;100.00
12666;BME280;58531;59.050;17.416;2023-01-30T03:09:43;97500.06;;;3.60;100.00
12666;BME280;58531;59.050;17.416;2023-01-30T03:12:17;97513.88;;;3.49;100.00
12666;BME280;58531;59.050;17.416;2023-01-30T03:14:51;97494.75;;;3.54;100.00
12666;BME280;58531;59.050;17.416;2023-01-30T03:17:22;97490.91;;;3.55;100.00
12666;BME280;58531;59.050;17.416;2023-01-30T03:19:53;97497.69;;;3.42;100.00
12666;BME280;58531;59.050;17.416;2023-01-30T03:22:21;97492.09;;;3.35;100.00
12666;BME280;58531;59.050;17.416;2023-01-30T03:24:50;97483.72;;;3.36;100.00
12666;BME280;58531;59.050;17.416;2023-01-30T03:27:19;97483.19;;;3.32;100.00
12666;BME280;58531;59.050;17.416;2023-01-30T03:29:46;97500.50;;;3.19;100.00
12666;BME280;58531;59.050;17.416;2023-01-30T03:32:13;97491.09;;;3.12;100.00
12666;BME280;58531;59.050;17.416;2023-01-30T03:34:40;97481.84;;;3.02;100.00
12666;BME280;58531;59.050;17.416;2023-01-30T03:37:08;97471.38;;;3.08;100.00
12666;BME280;58531;59.050;17.416;2023-01-30T03:39:35;97485.72;;;3.07;100.00
12666;BME280;58531;59.050;17.416;2023-01-30T03:42:02;97479.75;;;3.06;100.00
12666;BME280;58531;59.050;17.416;2023-01-30T03:44:29;97461.78;;;3.05;100.00
12666;BME280;58531;59.050;17.416;2023-01-30T03:46:56;97458.25;;;2.93;100.00
12666;BME280;58531;59.050;17.416;2023-01-30T03:49:23;97453.06;;;2.99;100.00
12666;BME280;58531;59.050;17.416;2023-01-30T03:51:49;97462.97;;;2.89;100.00
12666;BME280;58531;59.050;17.416;2023-01-30T03:54:18;97457.84;;;2.80;100.00
12666;BME280;58531;59.050;17.416;2023-01-30T03:56:45;97466.13;;;2.73;100.00
12666;BME280;58531;59.050;17.416;2023-01-30T03:59:12;97477.31;;;2.68;100.00
12666;BME280;58531;59.050;17.416;2023-01-30T04:01:39;97462.53;;;2.56;100.00
12666;BME280;58531;59.050;17.416;2023-01-30T04:04:05;97444.63;;;2.60;100.00
12666;BME280;58531;59.050;17.416;2023-01-30T04:06:32;97443.59;;;2.72;100.00
12666;BME280;58531;59.050;17.416;2023-01-30T04:08:59;97459.31;;;2.67;100.00
12666;BME280;58531;59.050;17.416;2023-01-30T04:11:27;97454.50;;;2.65;100.00
12666;BME280;58531;59.050;17.416;2023-01-30T04:13:54;97449.09;;;2.54;100.00
12666;BME280;58531;59.050;17.416;2023-01-30T04:16:23;97460.00;;;2.47;100.00
12666;BME280;58531;59.050;17.416;2023-01-30T04:18:51;97462.53;;;2.56;100.00
12666;BME280;58531;59.050;17.416;2023-01-30T04:21:18;97454.19;;;2.43;100.00
12666;BME280;58531;59.050;17.416;2023-01-30T04:23:45;97448.38;;;2.39;100.00
12666;BME280;58531;59.050;17.416;2023-01-30T04:26:12;97444.38;;;2.44;100.00
12666;BME280;58531;59.050;17.416;2023-01-30T04:28:41;97431.97;;;2.30;100.00
12666;BME280;58531;59.050;17.416;2023-01-30T04:31:08;97425.94;;;2.44;100.00
12666;BME280;58531;59.050;17.416;2023-01-30T04:33:35;97417.69;;;2.51;99.74
12666;BME280;58531;59.050;17.416;2023-01-30T04:36:05;97407.63;;;2.35;99.89
12666;BME280;58531;59.050;17.416;2023-01-30T04:38:33;97420.22;;;2.45;99.06
12666;BME280;58531;59.050;17.416;2023-01-30T04:41:01;97426.22;;;2.31;99.56
12666;BME280;58531;59.050;17.416;2023-01-30T04:43:28;97421.34;;;2.25;99.10
12666;BME280;58531;59.050;17.416;2023-01-30T04:45:56;97416.47;;;2.18;99.35
12666;BME280;58531;59.050;17.416;2023-01-30T04:48:24;97413.19;;;2.23;97.66
12666;BME280;58531;59.050;17.416;2023-01-30T04:50:52;97410.28;;;2.21;96.84
12666;BME280;58531;59.050;17.416;2023-01-30T04:53:20;97403.38;;;2.23;96.01
12666;BME280;58531;59.050;17.416;2023-01-30T04:55:47;97407.00;;;2.26;95.45
12666;BME280;58531;59.050;17.416;2023-01-30T04:58:14;97401.75;;;2.11;96.08
12666;BME280;58531;59.050;17.416;2023-01-30T05:00:41;97418.06;;;2.15;94.93
12666;BME280;58531;59.050;17.416;2023-01-30T05:03:10;97416.28;;;2.07;95.31
12666;BME280;58531;59.050;17.416;2023-01-30T05:05:36;97404.84;;;1.95;95.86
12666;BME280;58531;59.050;17.416;2023-01-30T05:08:04;97395.41;;;2.18;93.43
12666;BME280;58531;59.050;17.416;2023-01-30T05:10:31;97382.50;;;2.05;94.27
12666;BME280;58531;59.050;17.416;2023-01-30T05:13:01;97384.50;;;2.10;93.08
12666;BME280;58531;59.050;17.416;2023-01-30T05:15:28;97379.06;;;2.14;92.59
12666;BME280;58531;59.050;17.416;2023-01-30T05:17:55;97392.69;;;1.98;93.66
12666;BME280;58531;59.050;17.416;2023-01-30T05:20:23;97395.13;;;1.87;93.92
12666;BME280;58531;59.050;17.416;2023-01-30T05:22:50;97380.72;;;1.68;94.85
12666;BME280;58531;59.050;17.416;2023-01-30T05:25:17;97383.28;;;1.77;92.94
12666;BME280;58531;59.050;17.416;2023-01-30T05:27:44;97379.28;;;1.81;93.37
12666;BME280;58531;59.050;17.416;2023-01-30T05:30:11;97373.09;;;1.84;92.00
12666;BME280;58531;59.050;17.416;2023-01-30T05:32:38;97377.28;;;1.76;92.56
12666;BME280;58531;59.050;17.416;2023-01-30T05:35:05;97396.31;;;1.57;94.13
12666;BME280;58531;59.050;17.416;2023-01-30T05:37:34;97391.88;;;1.48;94.01
12666;BME280;58531;59.050;17.416;2023-01-30T05:40:03;97406.28;;;1.53;93.54
12666;BME280;58531;59.050;17.416;2023-01-30T05:42:30;97390.84;;;1.46;94.18
12666;BME280;58531;59.050;17.416;2023-01-30T05:44:57;97396.84;;;1.46;94.31
12666;BME280;58531;59.050;17.416;2023-01-30T05:47:24;97398.13;;;1.65;91.92
12666;BME280;58531;59.050;17.416;2023-01-30T05:49:51;97384.00;;;1.63;91.85
12666;BME280;58531;59.050;17.416;2023-01-30T05:52:17;97385.59;;;1.46;92.31
12666;BME280;58531;59.050;17.416;2023-01-30T05:54:46;97393.31;;;1.49;92.26
12666;BME280;58531;59.050;17.416;2023-01-30T05:57:13;97394.31;;;1.52;92.36
12666;BME280;58531;59.050;17.416;2023-01-30T05:59:39;97397.00;;;1.43;91.87
12666;BME280;58531;59.050;17.416;2023-01-30T06:02:06;97399.72;;;1.34;92.18
12666;BME280;58531;59.050;17.416;2023-01-30T06:04:33;97407.97;;;1.27;93.28
12666;BME280;58531;59.050;17.416;2023-01-30T06:07:01;97401.91;;;1.35;92.48
12666;BME280;58531;59.050;17.416;2023-01-30T06:09:27;97405.78;;;1.40;91.96
12666;BME280;58531;59.050;17.416;2023-01-30T06:11:56;97413.97;;;1.42;92.17
12666;BME280;58531;59.050;17.416;2023-01-30T06:14:22;97424.13;;;1.49;91.70
12666;BME280;58531;59.050;17.416;2023-01-30T06:16:49;97421.69;;;1.60;90.36
12666;BME280;58531;59.050;17.416;2023-01-30T06:19:16;97426.69;;;1.58;90.44
12666;BME280;58531;59.050;17.416;2023-01-30T06:21:43;97416.59;;;1.42;91.33
12666;BME280;58531;59.050;17.416;2023-01-30T06:24:10;97411.50;;;1.38;91.56
12666;BME280;58531;59.050;17.416;2023-01-30T06:26:37;97408.78;;;1.33;90.93
12666;BME280;58531;59.050;17.416;2023-01-30T06:29:05;97407.78;;;1.30;92.41
12666;BME280;58531;59.050;17.416;2023-01-30T06:31:32;97393.56;;;1.37;90.88
12666;BME280;58531;59.050;17.416;2023-01-30T06:33:58;97386.34;;;1.46;90.14
12666;BME280;58531;59.050;17.416;2023-01-30T06:36:25;97394.84;;;1.41;91.45
12666;BME280;58531;59.050;17.416;2023-01-30T06:38:52;97404.06;;;1.37;92.53
12666;BME280;58531;59.050;17.416;2023-01-30T06:41:19;97411.44;;;1.47;91.14
12666;BME280;58531;59.050;17.416;2023-01-30T06:43:46;97407.53;;;1.43;91.46
12666;BME280;58531;59.050;17.416;2023-01-30T06:46:14;97412.56;;;1.32;91.62
12666;BME280;58531;59.050;17.416;2023-01-30T06:48:41;97416.94;;;1.35;91.63
12666;BME280;58531;59.050;17.416;2023-01-30T06:51:08;97416.66;;;1.33;92.38
12666;BME280;58531;59.050;17.416;2023-01-30T06:53:35;97426.97;;;1.22;92.30
12666;BME280;58531;59.050;17.416;2023-01-30T06:56:03;97426.72;;;1.34;91.00
12666;BME280;58531;59.050;17.416;2023-01-30T06:58:30;97419.78;;;1.46;90.70
12666;BME280;58531;59.050;17.416;2023-01-30T07:00:56;97426.66;;;1.43;90.39
12666;BME280;58531;59.050;17.416;2023-01-30T07:03:25;97422.41;;;1.46;90.47
12666;BME280;58531;59.050;17.416;2023-01-30T07:05:52;97422.88;;;1.44;91.28
12666;BME280;58531;59.050;17.416;2023-01-30T07:08:19;97417.97;;;1.52;91.47
12666;BME280;58531;59.050;17.416;2023-01-30T07:10:46;97419.69;;;1.55;91.25
12666;BME280;58531;59.050;17.416;2023-01-30T07:13:13;97417.34;;;1.57;92.11
12666;BME280;58531;59.050;17.416;2023-01-30T07:15:40;97421.09;;;1.79;90.18
12666;BME280;58531;59.050;17.416;2023-01-30T07:18:07;97417.63;;;1.88;88.99
12666;BME280;58531;59.050;17.416;2023-01-30T07:20:35;97422.09;;;1.96;88.99
12666;BME280;58531;59.050;17.416;2023-01-30T07:23:02;97428.63;;;2.01;89.00
12666;BME280;58531;59.050;17.416;2023-01-30T07:25:29;97428.53;;;2.10;88.03
12666;BME280;58531;59.050;17.416;2023-01-30T07:27:57;97430.78;;;2.17;87.91
12666;BME280;58531;59.050;17.416;2023-01-30T07:30:25;97446.88;;;2.19;88.43
12666;BME280;58531;59.050;17.416;2023-01-30T07:32:52;97443.13;;;2.25;88.68
12666;BME280;58531;59.050;17.416;2023-01-30T07:35:20;97440.19;;;2.37;87.40
12666;BME280;58531;59.050;17.416;2023-01-30T07:37:49;97450.09;;;2.42;87.08
12666;BME280;58531;59.050;17.416;2023-01-30T07:40:18;97436.00;;;2.45;86.25
12666;BME280;58531;59.050;17.416;2023-01-30T07:42:55;97445.91;;;2.50;85.93
12666;BME280;58531;59.050;17.416;2023-01-30T07:45:22;97438.91;;;2.47;87.56
12666;BME280;58531;59.050;17.416;2023-01-30T07:47:49;97438.47;;;2.49;86.91
12666;BME280;58531;59.050;17.416;2023-01-30T07:50:16;97437.03;;;2.48;86.93
12666;BME280;58531;59.050;17.416;2023-01-30T07:52:43;97429.03;;;2.42;87.15
12666;BME280;58531;59.050;17.416;2023-01-30T07:55:12;97423.69;;;2.37;86.87
12666;BME280;58531;59.050;17.416;2023-01-30T07:57:39;97429.31;;;2.30;89.05
12666;BME280;58531;59.050;17.416;2023-01-30T08:00:07;97426.97;;;2.18;88.14
12666;BME280;58531;59.050;17.416;2023-01-30T08:02:35;97419.19;;;2.09;90.33
12666;BME280;58531;59.050;17.416;2023-01-30T08:05:03;97421.47;;;2.01;90.18
12666;BME280;58531;59.050;17.416;2023-01-30T08:07:30;97415.72;;;2.03;90.47
12666;BME280;58531;59.050;17.416;2023-01-30T08:09:56;97417.47;;;2.06;91.11
12666;BME280;58531;59.050;17.416;2023-01-30T08:12:25;97425.69;;;2.13;90.37
12666;BME280;58531;59.050;17.416;2023-01-30T08:14:52;97415.19;;;2.28;90.02
12666;BME280;58531;59.050;17.416;2023-01-30T08:17:19;97412.25;;;2.40;89.67
12666;BME280;58531;59.050;17.416;2023-01-30T08:19:45;97394.03;;;2.56;87.92
12666;BME280;58531;59.050;17.416;2023-01-30T08:22:12;97399.63;;;2.64;87.84
12666;BME280;58531;59.050;17.416;2023-01-30T08:24:39;97399.72;;;2.69;87.13
12666;BME280;58531;59.050;17.416;2023-01-30T08:27:06;97408.81;;;2.68;86.86
12666;BME280;58531;59.050;17.416;2023-01-30T08:29:34;97402.47;;;2.60;86.88
12666;BME280;58531;59.050;17.416;2023-01-30T08:32:01;97411.94;;;2.52;87.56
12666;BME280;58531;59.050;17.416;2023-01-30T08:34:28;97407.31;;;2.47;87.41
12666;BME280;58531;59.050;17.416;2023-01-30T08:36:55;97416.88;;;2.45;87.85
12666;BME280;58531;59.050;17.416;2023-01-30T08:39:22;97417.31;;;2.43;88.12
12666;BME280;58531;59.050;17.416;2023-01-30T08:41:49;97418.22;;;2.55;87.18
12666;BME280;58531;59.050;17.416;2023-01-30T08:44:15;97424.09;;;2.64;86.79
12666;BME280;58531;59.050;17.416;2023-01-30T08:46:45;97426.34;;;2.71;87.08
12666;BME280;58531;59.050;17.416;2023-01-30T08:49:12;97411.97;;;2.72;87.16
12666;BME280;58531;59.050;17.416;2023-01-30T08:51:39;97416.06;;;2.73;86.44
12666;BME280;58531;59.050;17.416;2023-01-30T08:54:06;97418.50;;;2.77;84.80
12666;BME280;58531;59.050;17.416;2023-01-30T08:56:33;97409.22;;;2.81;84.92
12666;BME280;58531;59.050;17.416;2023-01-30T08:59:00;97399.72;;;2.89;85.26
12666;BME280;58531;59.050;17.416;2023-01-30T09:01:27;97395.25;;;2.95;85.73
12666;BME280;58531;59.050;17.416;2023-01-30T09:03:56;97394.47;;;2.89;86.04
12666;BME280;58531;59.050;17.416;2023-01-30T09:06:23;97398.66;;;2.81;86.32
12666;BME280;58531;59.050;17.416;2023-01-30T09:08:49;97395.72;;;2.74;85.04
12666;BME280;58531;59.050;17.416;2023-01-30T09:11:16;97406.50;;;2.76;84.69
12666;BME280;58531;59.050;17.416;2023-01-30T09:13:43;97405.28;;;2.71;85.71
12666;BME280;58531;59.050;17.416;2023-01-30T09:16:10;97413.97;;;2.77;85.25
12666;BME280;58531;59.050;17.416;2023-01-30T09:18:38;97409.41;;;2.78;84.64
12666;BME280;58531;59.050;17.416;2023-01-30T09:21:07;97404.75;;;2.87;84.14
12666;BME280;58531;59.050;17.416;2023-01-30T09:23:35;97404.09;;;2.92;84.84
12666;BME280;58531;59.050;17.416;2023-01-30T09:26:02;97399.34;;;2.96;84.17
12666;BME280;58531;59.050;17.416;2023-01-30T09:28:30;97394.34;;;2.98;83.34
12666;BME280;58531;59.050;17.416;2023-01-30T09:30:57;97401.72;;;2.94;84.20
12666;BME280;58531;59.050;17.416;2023-01-30T09:33:24;97399.47;;;2.87;83.87
12666;BME280;58531;59.050;17.416;2023-01-30T09:35:51;97385.25;;;2.79;84.39
12666;BME280;58531;59.050;17.416;2023-01-30T09:38:19;97396.72;;;2.76;82.81
12666;BME280;58531;59.050;17.416;2023-01-30T09:41:04;97397.38;;;2.71;83.67
12666;BME280;58531;59.050;17.416;2023-01-30T09:43:46;97396.56;;;2.65;85.67
12666;BME280;58531;59.050;17.416;2023-01-30T09:46:28;97403.81;;;2.70;84.96
12666;BME280;58531;59.050;17.416;2023-01-30T09:49:06;97397.63;;;2.73;84.83
12666;BME280;58531;59.050;17.416;2023-01-30T09:51:43;97408.03;;;2.82;84.15
12666;BME280;58531;59.050;17.416;2023-01-30T09:54:26;97397.31;;;2.86;84.12
12666;BME280;58531;59.050;17.416;2023-01-30T09:57:07;97386.44;;;2.98;83.01
12666;BME280;58531;59.050;17.416;2023-01-30T09:59:43;97376.03;;;3.09;83.87
12666;BME280;58531;59.050;17.416;2023-01-30T10:02:23;97380.59;;;3.34;82.20
12666;BME280;58531;59.050;17.416;2023-01-30T10:04:54;97374.91;;;3.41;81.84
12666;BME280;58531;59.050;17.416;2023-01-30T10:07:30;97381.63;;;3.42;80.95
12666;BME280;58531;59.050;17.416;2023-01-30T10:10:04;97379.66;;;3.37;82.34
12666;BME280;58531;59.050;17.416;2023-01-30T10:12:41;97395.22;;;3.35;81.00
12666;BME280;58531;59.050;17.416;2023-01-30T10:15:30;97403.75;;;3.45;80.50
12666;BME280;58531;59.050;17.416;2023-01-30T10:18:13;97385.88;;;3.34;81.88
12666;BME280;58531;59.050;17.416;2023-01-30T10:20:47;97374.22;;;3.21;81.58
12666;BME280;58531;59.050;17.416;2023-01-30T10:23:30;97389.78;;;3.19;81.46
12666;BME280;58531;59.050;17.416;2023-01-30T10:26:04;97380.28;;;3.27;79.59
12666;BME280;58531;59.050;17.416;2023-01-30T10:28:38;97384.38;;;3.28;81.22
12666;BME280;58531;59.050;17.416;2023-01-30T10:31:13;97380.28;;;3.27;80.14
12666;BME280;58531;59.050;17.416;2023-01-30T10:33:43;97376.47;;;3.28;81.45
12666;BME280;58531;59.050;17.416;2023-01-30T10:36:13;97385.25;;;3.19;83.29
12666;BME280;58531;59.050;17.416;2023-01-30T10:38:45;97370.00;;;3.29;80.69
12666;BME280;58531;59.050;17.416;2023-01-30T10:41:21;97369.34;;;3.34;80.01
12666;BME280;58531;59.050;17.416;2023-01-30T10:43:57;97368.59;;;3.33;79.58
12666;BME280;58531;59.050;17.416;2023-01-30T10:46:42;97373.88;;;3.33;79.96
12666;BME280;58531;59.050;17.416;2023-01-30T10:49:14;97361.47;;;3.39;79.39
12666;BME280;58531;59.050;17.416;2023-01-30T10:51:48;97373.47;;;3.40;79.36
12666;BME280;58531;59.050;17.416;2023-01-30T10:54:21;97362.22;;;3.40;78.29
12666;BME280;58531;59.050;17.416;2023-01-30T10:56:57;97369.63;;;3.41;79.84
12666;BME280;58531;59.050;17.416;2023-01-30T10:59:33;97360.81;;;3.44;78.95
12666;BME280;58531;59.050;17.416;2023-01-30T11:02:19;97348.63;;;3.47;80.25
12666;BME280;58531;59.050;17.416;2023-01-30T11:04:52;97363.81;;;3.57;76.75
12666;BME280;58531;59.050;17.416;2023-01-30T11:07:22;97361.66;;;3.55;79.25
12666;BME280;58531;59.050;17.416;2023-01-30T11:09:49;97353.94;;;3.52;78.84
12666;BME280;58531;59.050;17.416;2023-01-30T11:12:17;97363.44;;;3.44;79.54
12666;BME280;58531;59.050;17.416;2023-01-30T11:14:52;97360.09;;;3.44;79.33
12666;BME280;58531;59.050;17.416;2023-01-30T11:17:20;97363.78;;;3.51;78.84
12666;BME280;58531;59.050;17.416;2023-01-30T11:19:54;97365.81;;;3.67;77.61
12666;BME280;58531;59.050;17.416;2023-01-30T11:22:23;97381.75;;;3.78;77.15
12666;BME280;58531;59.050;17.416;2023-01-30T11:25:00;97379.00;;;3.93;74.69
12666;BME280;58531;59.050;17.416;2023-01-30T11:27:31;97368.91;;;3.91;77.31
12666;BME280;58531;59.050;17.416;2023-01-30T11:30:11;97384.44;;;3.84;77.80
12666;BME280;58531;59.050;17.416;2023-01-30T11:32:40;97374.72;;;3.70;76.75
12666;BME280;58531;59.050;17.416;2023-01-30T11:35:22;97381.56;;;3.56;76.86
12666;BME280;58531;59.050;17.416;2023-01-30T11:37:50;97385.22;;;3.64;75.88
12666;BME280;58531;59.050;17.416;2023-01-30T11:40:23;97387.69;;;3.73;76.04
12666;BME280;58531;59.050;17.416;2023-01-30T11:42:58;97392.19;;;3.93;74.01
12666;BME280;58531;59.050;17.416;2023-01-30T11:45:27;97377.25;;;4.15;73.64
12666;BME280;58531;59.050;17.416;2023-01-30T11:47:56;97398.53;;;4.37;73.03
12666;BME280;58531;59.050;17.416;2023-01-30T11:50:28;97385.94;;;4.58;69.71
12666;BME280;58531;59.050;17.416;2023-01-30T11:53:01;97399.16;;;4.58;69.71
12666;BME280;58531;59.050;17.416;2023-01-30T11:55:32;97420.72;;;4.51;69.10
12666;BME280;58531;59.050;17.416;2023-01-30T11:58:07;97432.19;;;4.42;68.34
12666;BME280;58531;59.050;17.416;2023-01-30T12:00:38;97416.69;;;4.24;70.54
12666;BME280;58531;59.050;17.416;2023-01-30T12:03:10;97409.34;;;4.08;71.52
12666;BME280;58531;59.050;17.416;2023-01-30T12:05:38;97428.03;;;3.99;72.05
12666;BME280;58531;59.050;17.416;2023-01-30T12:08:12;97423.97;;;4.04;71.38
12666;BME280;58531;59.050;17.416;2023-01-30T12:10:40;97423.94;;;3.98;73.25
12666;BME280;58531;59.050;17.416;2023-01-30T12:13:14;97426.50;;;3.93;74.00
12666;BME280;58531;59.050;17.416;2023-01-30T12:15:44;97416.88;;;3.90;75.35
12666;BME280;58531;59.050;17.416;2023-01-30T12:18:17;97414.16;;;3.79;74.94
12666;BME280;58531;59.050;17.416;2023-01-30T12:20:51;97410.38;;;3.85;73.33
12666;BME280;58531;59.050;17.416;2023-01-30T12:23:27;97403.38;;;3.82;72.68
12666;BME280;58531;59.050;17.416;2023-01-30T12:26:03;97414.34;;;3.75;74.88
12666;BME280;58531;59.050;17.416;2023-01-30T12:28:39;97417.00;;;3.75;75.76
12666;BME280;58531;59.050;17.416;2023-01-30T12:31:12;97406.50;;;3.81;73.74
12666;BME280;58531;59.050;17.416;2023-01-30T12:33:40;97414.97;;;3.90;72.07
12666;BME280;58531;59.050;17.416;2023-01-30T12:36:13;97413.66;;;4.06;72.88
12666;BME280;58531;59.050;17.416;2023-01-30T12:38:56;97409.94;;;4.18;72.56
12666;BME280;58531;59.050;17.416;2023-01-30T12:41:37;97404.47;;;4.27;69.87
12666;BME280;58531;59.050;17.416;2023-01-30T12:44:36;97411.63;;;4.21;71.75
12666;BME280;58531;59.050;17.416;2023-01-30T12:47:20;97407.81;;;4.22;70.03
12666;BME280;58531;59.050;17.416;2023-01-30T12:50:08;97402.53;;;4.22;69.61
12666;BME280;58531;59.050;17.416;2023-01-30T12:53:03;97416.75;;;4.30;68.24
12666;BME280;58531;59.050;17.416;2023-01-30T12:55:40;97424.88;;;4.26;71.61
12666;BME280;58531;59.050;17.416;2023-01-30T12:58:14;97421.47;;;4.20;69.48
12666;BME280;58531;59.050;17.416;2023-01-30T13:01:01;97424.09;;;4.20;69.02
12666;BME280;58531;59.050;17.416;2023-01-30T13:03:34;97422.19;;;4.21;70.75
12666;BME280;58531;59.050;17.416;2023-01-30T13:06:13;97434.63;;;4.15;70.49
12666;BME280;58531;59.050;17.416;2023-01-30T13:08:58;97443.84;;;4.25;69.04
12666;BME280;58531;59.050;17.416;2023-01-30T13:11:39;97447.88;;;4.20;67.93
12666;BME280;58531;59.050;17.416;2023-01-30T13:14:18;97438.97;;;4.18;70.34
12666;BME280;58531;59.050;17.416;2023-01-30T13:17:00;97445.19;;;4.15;68.90
12666;BME280;58531;59.050;17.416;2023-01-30T13:19:37;97452.69;;;4.22;67.05
12666;BME280;58531;59.050;17.416;2023-01-30T13:22:12;97455.50;;;4.13;67.94
12666;BME280;58531;59.050;17.416;2023-01-30T13:24:47;97449.72;;;4.14;66.92
12666;BME280;58531;59.050;17.416;2023-01-30T13:27:19;97462.38;;;4.05;69.86